Etusivu
METAR-TAF:

METAR-TAF

Lentoasemat :

Pell City, Alabama, Yhdysvallat

Leveyspiiri: 33-33-32N, Pituuspiiri: 086-14-57W, korkeus merenpinnasta: 148 m

Tämänhetkinen sää

Tämä raportti tehtiin 33 minuuttia sitten, kello 07.15 UTC
Tuuli 4 kn lounaasta
Lämpötila 21°C
Kosteus 100%
Ilmanpaine 1012 hPa
Näkyvyys: 2.4 km
Pilvistä 300 ft:n korkeudessa
utua

METAR: KPLR 130715Z AUTO 22004KT 1 1/2SM BR OVC003 21/21 A2989 RMK A01

Aika: 02:48 (07:48 UTC)


TAF: puuttuu

Säähavainnot ja -ennusteet yli 4000 lentoasemalta (METAR- ja TAF-raportit).

Käytössä olevat sääasemat on merkitty karttaan keltaisilla ja punaisilla pisteillä.

Aseta hiiri pisteen päälle nähdäksesi sääaseman nimen.

Klikkaa sitten nähdäksesi säähavainnot ja -ennusteet.

Kartan vaihtaminen: klikkaa mustalla rastilla varustettuja vihreitä pisteitä, niin voit zoomata sisään; viivalla varustettua vihreää pistettä, niin voit zoomata ulos tai vihreitä nuolia, niin pääset viereisille kartoille.


METAR-TAF: